SondeTracker

Meteorological Radiosondes Database

Operations

Sounding was ended - last measurement: 2022-12-06 01:13:17z

MAP
About Radiosonde

Number: U1820472

Launch Site: Anchorage [AK] (US)

Type: RS41

AUX: NO

Frequency: 405.301 MHz

Max Speed: 157 km/h at 10248 m

Average Speed: 68.10 km/h

Max Altitude: 34317 m

Average Ascent Speed: 5.25 m/s

Average Descent Speed: 28.70 m/s

Status: UNKNOWN

Status Changes
Launch Site Type AUX Frequency Status Finder Landing Point Description Changes made by
APRS Statistics

Received Frames: 170

First Frame [UTC]: 2022-12-05 23:21:53z

Last Frame [UTC]: 2022-12-06 01:13:17z

Receivers: KL4XQ

Flight Time: 01:51:24 h

Distance From First Measurement: 77.83 km

Nearest City: Tanaina [AK] (US) [45.16 km]

Nearest Hunter: KL4XQ [40.48 km]

Ground Altitude: 917 m

Distance from QTH: 0.00 km

APRS Data
Receiver Number Date/Time [UTC] φ λ Course [°] Speed [km/h] Altitude [m] Description
KL4XQU18204722022-12-06 01:13:1761.526-148.61823945758Clb=-13.4m/s t=-23.1C h=100.0% p=481.2hPa 405.301 MHz Type=RS41-SGP Radiosonde
KL4XQU18204722022-12-06 01:12:4761.5123-148.629181076577Clb=-15.6m/s t=-28.9C h=100.0% p=430.1hPa 405.301 MHz Type=RS41-SGP Radiosonde
KL4XQU18204722022-12-06 01:12:1561.5105-148.631141116676Clb=-17.0m/s t=-29.4C h=100.0% p=424.2hPa 405.301 MHz Type=RS41-SGP Radiosonde
KL4XQU18204722022-12-06 01:11:4361.4966-148.639161207419Clb=-16.2m/s t=-35.5C h=74.2% p=381.6hPa 405.301 MHz Type=RS41-SGP Radiosonde
KL4XQU18204722022-12-06 01:11:1361.4931-148.642181247606Clb=-16.1m/s t=-37.1C h=73.9% p=371.4hPa 405.301 MHz Type=RS41-SGP Radiosonde
KL4XQU18204722022-12-06 01:10:4161.4812-148.65171248289Clb=-19.1m/s t=-43.1C h=66.3% p=336.2hPa 405.301 MHz Type=RS41-SGP Radiosonde
KL4XQU18204722022-12-06 01:10:1061.4708-148.657181228944Clb=-19.9m/s t=-49.2C h=57.2% p=304.7hPa 405.301 MHz Type=RS41-SGP Radiosonde
KL4XQU18204722022-12-06 01:09:4061.466-148.661191289246Clb=-19.0m/s t=-52.0C h=53.1% p=290.6hPa 405.301 MHz Type=RS41-SGP Radiosonde
KL4XQU18204722022-12-06 01:09:0861.4552-148.669211439915Clb=-20.1m/s t=-57.3C h=32.2% p=262.0hPa 405.301 MHz Type=RS41-SGP Radiosonde
KL4XQU18204722022-12-06 01:08:3561.4451-148.6781912410564Clb=-21.6m/s t=-57.5C h=7.5% p=236.3hPa 405.301 MHz Type=RS41-SGP Radiosonde
KL4XQU18204722022-12-06 01:08:0161.4373-148.685268011347Clb=-22.5m/s t=-55.5C h=2.7% p=209.1hPa 405.301 MHz Type=RS41-SGP Radiosonde
KL4XQU18204722022-12-06 01:07:3061.4336-148.689275611857Clb=-21.2m/s t=-52.7C h=1.8% p=193.0hPa 405.301 MHz Type=RS41-SGP Radiosonde
KL4XQU18204722022-12-06 01:06:5961.4297-148.694365612557Clb=-22.2m/s t=-52.4C h=1.5% p=173.1hPa 405.301 MHz Type=RS41-SGP Radiosonde
KL4XQU18204722022-12-06 01:06:4361.4266-148.7415213241Clb=-26.0m/s t=-51.4C h=1.3% p=156.1hPa 405.301 MHz Type=RS41-SGP Radiosonde
KL4XQU18204722022-12-06 01:06:4161.4246-148.706553313940Clb=-24.7m/s t=-51.8C h=1.2% p=140.1hPa 405.301 MHz Type=RS41-SGP Radiosonde
KL4XQU18204722022-12-06 01:06:3761.4232-148.711673714877Clb=-26.3m/s t=-55.2C h=1.5% p=121.3hPa 405.301 MHz Type=RS41-SGP Radiosonde
KL4XQU18204722022-12-06 01:06:1661.4218-148.715332215760Clb=-24.0m/s t=-54.6C h=1.3% p=105.6hPa 405.301 MHz Type=RS41-SGP Radiosonde
KL4XQU18204722022-12-06 01:06:0061.4208-148.717453916285Clb=-29.3m/s t=-54.7C h=1.3% p=97.5hPa 405.301 MHz Type=RS41-SGP Radiosonde
KL4XQU18204722022-12-06 01:05:5561.4196-148.724944617264Clb=-29.0m/s t=-55.6C h=1.2% p=83.6hPa 405.301 MHz Type=RS41-SGP Radiosonde
KL4XQU18204722022-12-06 01:05:4961.4194-148.728752218524Clb=-25.3m/s t=-55.2C h=1.0% p=68.7hPa 405.301 MHz Type=RS41-SGP Radiosonde
KL4XQU18204722022-12-06 01:05:4261.4193-148.731022818859Clb=-26.5m/s t=-54.6C h=1.0% p=65.2hPa 405.301 MHz Type=RS41-SGP Radiosonde
KL4XQU18204722022-12-06 01:05:1461.4202-148.7351373119969Clb=-34.1m/s t=-54.8C h=0.9% p=55.0hPa 405.301 MHz Type=RS41-SGP Radiosonde
KL4XQU18204722022-12-06 01:05:0061.4221-148.7421103121346Clb=-28.4m/s t=-55.5C h=0.9% p=44.4hPa 405.301 MHz Type=RS41-SGP Radiosonde
KL4XQU18204722022-12-06 01:04:3861.4251-148.7471162822785Clb=-26.7m/s t=-56.1C h=1.0% p=35.4hPa 405.301 MHz Type=RS41-SGP Radiosonde
KL4XQU18204722022-12-06 01:02:3461.4304-148.7611316125899Clb=-37.8m/s t=-58.3C h=0.9% p=21.8hPa 405.301 MHz Type=RS41-SGP Radiosonde
KL4XQU18204722022-12-06 01:01:0761.4384-148.7781388528401Clb=-38.5m/s t=-60.6C h=1.1% p=14.8hPa 405.301 MHz Type=RS41-SGP Radiosonde
KL4XQU18204722022-12-06 00:56:4261.4678-148.85313014434317Clb=4.5m/s t=-63.0C h=1.2% p=5.8hPa 405.301 MHz Type=RS41-SGP Radiosonde
KL4XQU18204722022-12-06 00:54:2561.4807-148.88712410233903Clb=5.4m/s t=-64.2C h=1.4% p=6.1hPa 405.301 MHz Type=RS41-SGP Radiosonde
KL4XQU18204722022-12-06 00:52:4761.4913-148.9261087833426Clb=7.1m/s t=-65.8C h=1.5% p=6.6hPa 405.301 MHz Type=RS41-SGP Radiosonde
KL4XQU18204722022-12-06 00:51:5861.4928-148.9321297633313Clb=5.3m/s t=-66.0C h=1.5% p=6.7hPa 405.301 MHz Type=RS41-SGP Radiosonde
KL4XQU18204722022-12-06 00:51:2861.4994-148.94615310032999Clb=6.3m/s t=-65.6C h=1.5% p=7.1hPa 405.301 MHz Type=RS41-SGP Radiosonde
KL4XQU18204722022-12-06 00:50:5661.5033-148.9521449432857Clb=6.9m/s t=-65.5C h=1.5% p=7.2hPa 405.301 MHz Type=RS41-SGP Radiosonde
KL4XQU18204722022-12-06 00:50:2661.5063-148.95714110032752Clb=7.2m/s t=-65.2C h=1.4% p=7.4hPa 405.301 MHz Type=RS41-SGP Radiosonde
KL4XQU18204722022-12-06 00:49:5461.5136-148.96814410432514Clb=4.6m/s t=-64.8C h=1.4% p=7.6hPa 405.301 MHz Type=RS41-SGP Radiosonde
KL4XQU18204722022-12-06 00:49:3661.5472-149.06212610231079Clb=6.7m/s t=-64.4C h=1.4% p=9.6hPa 405.301 MHz Type=RS41-SGP Radiosonde
KL4XQU18204722022-12-06 00:49:3461.5518-149.07612310230857Clb=6.8m/s t=-64.0C h=1.3% p=9.9hPa 405.301 MHz Type=RS41-SGP Radiosonde
KL4XQU18204722022-12-06 00:49:3261.5558-149.0871309430664Clb=6.4m/s t=-63.0C h=1.3% p=10.2hPa 405.301 MHz Type=RS41-SGP Radiosonde
KL4XQU18204722022-12-06 00:49:3061.5604-149.11196930437Clb=5.8m/s t=-62.9C h=1.3% p=10.6hPa 405.301 MHz Type=RS41-SGP Radiosonde
KL4XQU18204722022-12-06 00:49:2861.5632-149.111227230271Clb=5.4m/s t=-62.4C h=1.2% p=10.9hPa 405.301 MHz Type=RS41-SGP Radiosonde
KL4XQU18204722022-12-06 00:46:2361.5736-149.1581326729346Clb=6.0m/s t=-61.0C h=1.2% p=12.6hPa 405.301 MHz Type=RS41-SGP Radiosonde
KL4XQU18204722022-12-06 00:45:2761.5743-149.161186929291Clb=6.2m/s t=-61.2C h=1.2% p=12.7hPa 405.301 MHz Type=RS41-SGP Radiosonde
KL4XQU18204722022-12-06 00:44:3561.5767-149.1661395429121Clb=7.7m/s t=-61.5C h=1.2% p=13.0hPa 405.301 MHz Type=RS41-SGP Radiosonde
KL4XQU18204722022-12-06 00:43:4061.5803-149.1721486328918Clb=6.8m/s t=-61.5C h=1.3% p=13.5hPa 405.301 MHz Type=RS41-SGP Radiosonde
KL4XQU18204722022-12-06 00:42:4261.5847-149.181388328720Clb=6.8m/s t=-61.4C h=1.2% p=13.9hPa 405.301 MHz Type=RS41-SGP Radiosonde
KL4XQU18204722022-12-06 00:39:4561.6012-149.2191308028050Clb=6.0m/s t=-62.6C h=1.3% p=15.5hPa 405.301 MHz Type=RS41-SGP Radiosonde
KL4XQU18204722022-12-06 00:38:5061.6036-149.2261227627925Clb=6.6m/s t=-62.5C h=1.3% p=15.8hPa 405.301 MHz Type=RS41-SGP Radiosonde
KL4XQU18204722022-12-06 00:37:5461.6059-149.2321306127782Clb=6.5m/s t=-61.9C h=1.3% p=16.1hPa 405.301 MHz Type=RS41-SGP Radiosonde
KL4XQU18204722022-12-06 00:36:4861.6094-149.2431285027513Clb=7.7m/s t=-61.9C h=1.3% p=16.8hPa 405.301 MHz Type=RS41-SGP Radiosonde
KL4XQU18204722022-12-06 00:34:5361.6187-149.2571585026956Clb=6.3m/s t=-60.0C h=1.1% p=18.4hPa 405.301 MHz Type=RS41-SGP Radiosonde
KL4XQU18204722022-12-06 00:33:5161.6278-149.2661456526596Clb=6.3m/s t=-58.6C h=1.0% p=19.5hPa 405.301 MHz Type=RS41-SGP Radiosonde
KL4XQU18204722022-12-06 00:33:2061.6316-149.2721306526430Clb=6.2m/s t=-58.6C h=1.1% p=19.9hPa 405.301 MHz Type=RS41-SGP Radiosonde
KL4XQU18204722022-12-06 00:33:0261.6642-149.3671384623591Clb=6.2m/s t=-56.9C h=1.1% p=31.1hPa 405.301 MHz Type=RS41-SGP Radiosonde
KL4XQU18204722022-12-06 00:32:0461.6665-149.3721453523416Clb=5.1m/s t=-56.1C h=1.0% p=31.9hPa 405.301 MHz Type=RS41-SGP Radiosonde
KL4XQU18204722022-12-06 00:31:0561.6682-149.3741342223245Clb=4.1m/s t=-56.1C h=1.0% p=32.8hPa 405.301 MHz Type=RS41-SGP Radiosonde
KL4XQU18204722022-12-06 00:30:0661.6689-149.3781072223083Clb=4.1m/s t=-56.3C h=1.0% p=33.6hPa 405.301 MHz Type=RS41-SGP Radiosonde
KL4XQU18204722022-12-06 00:29:0861.6694-149.382962622919Clb=5.0m/s t=-56.1C h=1.0% p=34.5hPa 405.301 MHz Type=RS41-SGP Radiosonde
KL4XQU18204722022-12-06 00:28:1161.6709-149.3851422822753Clb=5.1m/s t=-56.7C h=1.1% p=35.4hPa 405.301 MHz Type=RS41-SGP Radiosonde
KL4XQU18204722022-12-06 00:27:1161.6724-149.3871393022583Clb=4.9m/s t=-56.8C h=1.1% p=36.4hPa 405.301 MHz Type=RS41-SGP Radiosonde
KL4XQU18204722022-12-06 00:26:1161.6743-149.3891642822411Clb=5.9m/s t=-57.1C h=1.1% p=37.4hPa 405.301 MHz Type=RS41-SGP Radiosonde
KL4XQU18204722022-12-06 00:25:1061.6762-149.3911323522240Clb=6.7m/s t=-57.7C h=1.1% p=38.4hPa 405.301 MHz Type=RS41-SGP Radiosonde
KL4XQU18204722022-12-06 00:24:1061.6785-149.3951383922066Clb=5.3m/s t=-57.7C h=1.2% p=39.4hPa 405.301 MHz Type=RS41-SGP Radiosonde
KL4XQU18204722022-12-06 00:23:1361.6808-149.3981394321902Clb=6.0m/s t=-57.5C h=1.2% p=40.5hPa 405.301 MHz Type=RS41-SGP Radiosonde
KL4XQU18204722022-12-06 00:22:1361.6843-149.4071124821620Clb=5.2m/s t=-56.6C h=1.1% p=42.3hPa 405.301 MHz Type=RS41-SGP Radiosonde
KL4XQU18204722022-12-06 00:21:1661.686-149.4151123021424Clb=4.2m/s t=-55.2C h=1.0% p=43.6hPa 405.301 MHz Type=RS41-SGP Radiosonde
KL4XQU18204722022-12-06 00:20:1761.6865-149.4171103321363Clb=4.0m/s t=-54.8C h=1.0% p=44.0hPa 405.301 MHz Type=RS41-SGP Radiosonde
KL4XQU18204722022-12-06 00:19:1961.6871-149.4211212221200Clb=5.0m/s t=-54.9C h=1.1% p=45.1hPa 405.301 MHz Type=RS41-SGP Radiosonde
KL4XQU18204722022-12-06 00:18:2361.6879-149.4241213521085Clb=6.1m/s t=-54.8C h=1.1% p=46.0hPa 405.301 MHz Type=RS41-SGP Radiosonde
KL4XQU18204722022-12-06 00:17:2361.6896-149.4291233720907Clb=5.8m/s t=-55.5C h=1.0% p=47.3hPa 405.301 MHz Type=RS41-SGP Radiosonde
KL4XQU18204722022-12-06 00:16:2461.6907-149.4331012220755Clb=6.4m/s t=-55.0C h=1.0% p=48.4hPa 405.301 MHz Type=RS41-SGP Radiosonde
KL4XQU18204722022-12-06 00:15:4461.6919-149.4381243320563Clb=5.6m/s t=-54.7C h=1.0% p=49.8hPa 405.301 MHz Type=RS41-SGP Radiosonde
KL4XQU18204722022-12-06 00:15:1661.6929-149.442974120419Clb=6.1m/s t=-54.9C h=1.1% p=51.0hPa 405.301 MHz Type=RS41-SGP Radiosonde
KL4XQU18204722022-12-06 00:14:4461.6934-149.448933320264Clb=6.1m/s t=-55.2C h=1.0% p=52.2hPa 405.301 MHz Type=RS41-SGP Radiosonde
KL4XQU18204722022-12-06 00:14:3661.6944-149.4521203520105Clb=4.9m/s t=-55.6C h=1.1% p=53.5hPa 405.301 MHz Type=RS41-SGP Radiosonde
KL4XQU18204722022-12-06 00:14:0261.6957-149.4581104119943Clb=4.9m/s t=-55.0C h=1.1% p=54.9hPa 405.301 MHz Type=RS41-SGP Radiosonde
KL4XQU18204722022-12-06 00:13:5361.6962-149.465904419781Clb=4.4m/s t=-55.0C h=1.1% p=56.3hPa 405.301 MHz Type=RS41-SGP Radiosonde
KL4XQU18204722022-12-06 00:13:4461.6955-149.471653519624Clb=4.3m/s t=-55.8C h=1.2% p=57.7hPa 405.301 MHz Type=RS41-SGP Radiosonde
KL4XQU18204722022-12-06 00:13:3961.6943-149.475602419476Clb=5.0m/s t=-55.5C h=1.2% p=59.0hPa 405.301 MHz Type=RS41-SGP Radiosonde
KL4XQU18204722022-12-06 00:13:3661.6942-149.4791173119329Clb=4.1m/s t=-56.0C h=1.2% p=60.4hPa 405.301 MHz Type=RS41-SGP Radiosonde
KL4XQU18204722022-12-06 00:13:2961.6948-149.4841123919184Clb=5.5m/s t=-55.1C h=1.2% p=61.8hPa 405.301 MHz Type=RS41-SGP Radiosonde
KL4XQU18204722022-12-06 00:13:0161.6953-149.491994419033Clb=6.8m/s t=-55.2C h=1.2% p=63.2hPa 405.301 MHz Type=RS41-SGP Radiosonde
KL4XQU18204722022-12-06 00:12:5961.6954-149.496903718882Clb=6.1m/s t=-54.3C h=1.1% p=64.8hPa 405.301 MHz Type=RS41-SGP Radiosonde
KL4XQU18204722022-12-06 00:12:5761.6949-149.501703118728Clb=5.2m/s t=-53.7C h=1.2% p=66.3hPa 405.301 MHz Type=RS41-SGP Radiosonde
KL4XQU18204722022-12-06 00:12:5361.694-149.506753118550Clb=4.8m/s t=-53.9C h=1.1% p=68.1hPa 405.301 MHz Type=RS41-SGP Radiosonde
KL4XQU18204722022-12-06 00:12:0561.6932-149.512753018258Clb=4.6m/s t=-55.1C h=1.3% p=71.3hPa 405.301 MHz Type=RS41-SGP Radiosonde
KL4XQU18204722022-12-06 00:11:0961.6932-149.512742618243Clb=4.6m/s t=-55.2C h=1.3% p=71.5hPa 405.301 MHz Type=RS41-SGP Radiosonde
KL4XQU18204722022-12-06 00:10:0961.6925-149.51554418065Clb=4.7m/s t=-56.8C h=1.4% p=73.5hPa 405.301 MHz Type=RS41-SGP Radiosonde
KL4XQU18204722022-12-06 00:09:1261.6919-149.51526717922Clb=4.5m/s t=-57.3C h=1.5% p=75.2hPa 405.301 MHz Type=RS41-SGP Radiosonde
KL4XQU18204722022-12-06 00:08:1561.6915-149.516721117766Clb=4.5m/s t=-57.1C h=1.5% p=77.0hPa 405.301 MHz Type=RS41-SGP Radiosonde
KL4XQU18204722022-12-06 00:07:1861.6915-149.5191052217607Clb=5.8m/s t=-55.9C h=1.4% p=78.9hPa 405.301 MHz Type=RS41-SGP Radiosonde
KL4XQU18204722022-12-06 00:06:2561.6915-149.524884117452Clb=5.5m/s t=-55.8C h=1.4% p=80.9hPa 405.301 MHz Type=RS41-SGP Radiosonde
KL4XQU18204722022-12-06 00:05:2761.6907-149.531695017314Clb=5.2m/s t=-55.9C h=1.5% p=82.6hPa 405.301 MHz Type=RS41-SGP Radiosonde
KL4XQU18204722022-12-06 00:03:4961.6883-149.544703517007Clb=4.2m/s t=-56.7C h=1.6% p=86.7hPa 405.301 MHz Type=RS41-SGP Radiosonde
KL4XQU18204722022-12-06 00:03:2261.6873-149.548633716887Clb=5.5m/s t=-56.0C h=1.5% p=88.4hPa 405.301 MHz Type=RS41-SGP Radiosonde
KL4XQU18204722022-12-06 00:02:4761.6856-149.553474316743Clb=4.5m/s t=-55.8C h=1.5% p=90.3hPa 405.301 MHz Type=RS41-SGP Radiosonde
KL4XQU18204722022-12-06 00:02:1761.683-149.558423716569Clb=4.6m/s t=-55.6C h=1.5% p=92.9hPa 405.301 MHz Type=RS41-SGP Radiosonde
KL4XQU18204722022-12-06 00:01:1561.678-149.565222016161Clb=4.1m/s t=-55.2C h=1.6% p=99.0hPa 405.301 MHz Type=RS41-SGP Radiosonde
KL4XQU18204722022-12-06 00:00:5461.6761-149.567342815994Clb=3.8m/s t=-54.8C h=1.6% p=101.6hPa 405.301 MHz Type=RS41-SGP Radiosonde
KL4XQU18204722022-12-06 00:00:4761.6725-149.572332615744Clb=3.6m/s t=-55.3C h=1.6% p=105.6hPa 405.301 MHz Type=RS41-SGP Radiosonde
KL4XQU18204722022-12-06 00:00:3861.6724-149.572342815740Clb=5.1m/s t=-55.3C h=1.7% p=105.7hPa 405.301 MHz Type=RS41-SGP Radiosonde
KL4XQU18204722022-12-06 00:00:3361.6709-149.575351115609Clb=4.3m/s t=-55.7C h=1.6% p=107.9hPa 405.301 MHz Type=RS41-SGP Radiosonde
KL4XQU18204722022-12-06 00:00:3061.67-149.576401115466Clb=3.7m/s t=-55.0C h=1.6% p=110.3hPa 405.301 MHz Type=RS41-SGP Radiosonde
KL4XQU18204722022-12-05 23:59:5361.6685-149.578232015319Clb=3.7m/s t=-54.3C h=1.6% p=112.9hPa 405.301 MHz Type=RS41-SGP Radiosonde
KL4XQU18204722022-12-05 23:58:5861.667-149.58322815175Clb=3.4m/s t=-53.7C h=1.5% p=115.3hPa 405.301 MHz Type=RS41-SGP Radiosonde
KL4XQU18204722022-12-05 23:58:0561.6656-149.584634315038Clb=4.4m/s t=-55.4C h=1.8% p=117.9hPa 405.301 MHz Type=RS41-SGP Radiosonde
KL4XQU18204722022-12-05 23:57:1161.6639-149.59573514894Clb=3.7m/s t=-55.2C h=1.7% p=120.6hPa 405.301 MHz Type=RS41-SGP Radiosonde
KL4XQU18204722022-12-05 23:56:1361.6629-149.594702614764Clb=3.7m/s t=-54.6C h=1.6% p=123.0hPa 405.301 MHz Type=RS41-SGP Radiosonde
KL4XQU18204722022-12-05 23:56:0161.6623-149.597991714629Clb=5.1m/s t=-54.4C h=1.5% p=125.7hPa 405.301 MHz Type=RS41-SGP Radiosonde
KL4XQU18204722022-12-05 23:55:5861.6619-149.601782214485Clb=4.2m/s t=-53.8C h=1.5% p=128.5hPa 405.301 MHz Type=RS41-SGP Radiosonde
KL4XQU18204722022-12-05 23:55:1461.661-149.606663114331Clb=4.7m/s t=-53.1C h=1.4% p=131.6hPa 405.301 MHz Type=RS41-SGP Radiosonde
KL4XQU18204722022-12-05 23:54:2661.66-149.61564314223Clb=5.5m/s t=-53.5C h=1.5% p=133.9hPa 405.301 MHz Type=RS41-SGP Radiosonde
KL4XQU18204722022-12-05 23:53:3461.6581-149.617564414090Clb=4.8m/s t=-52.7C h=1.4% p=136.7hPa 405.301 MHz Type=RS41-SGP Radiosonde
KL4XQU18204722022-12-05 23:52:4461.656-149.622633913948Clb=4.3m/s t=-52.1C h=1.5% p=139.6hPa 405.301 MHz Type=RS41-SGP Radiosonde
KL4XQU18204722022-12-05 23:51:5561.6541-149.627463913790Clb=4.0m/s t=-50.7C h=1.4% p=143.1hPa 405.301 MHz Type=RS41-SGP Radiosonde
KL4XQU18204722022-12-05 23:51:2461.6522-149.633575913628Clb=5.1m/s t=-51.1C h=1.5% p=146.7hPa 405.301 MHz Type=RS41-SGP Radiosonde
KL4XQU18204722022-12-05 23:51:1661.6493-149.64414613493Clb=4.8m/s t=-51.5C h=1.7% p=149.8hPa 405.301 MHz Type=RS41-SGP Radiosonde
KL4XQU18204722022-12-05 23:51:1461.6465-149.644415013370Clb=4.4m/s t=-51.3C h=1.7% p=152.6hPa 405.301 MHz Type=RS41-SGP Radiosonde
KL4XQU18204722022-12-05 23:50:5561.6429-149.649265913237Clb=3.5m/s t=-51.4C h=1.9% p=155.8hPa 405.301 MHz Type=RS41-SGP Radiosonde
KL4XQU18204722022-12-05 23:50:0661.6391-149.653234813096Clb=5.1m/s t=-50.6C h=2.0% p=159.1hPa 405.301 MHz Type=RS41-SGP Radiosonde
KL4XQU18204722022-12-05 23:49:1861.6355-149.657244612950Clb=4.2m/s t=-49.4C h=2.2% p=162.8hPa 405.301 MHz Type=RS41-SGP Radiosonde
KL4XQU18204722022-12-05 23:48:2661.6322-149.66264812804Clb=3.4m/s t=-49.5C h=2.4% p=166.4hPa 405.301 MHz Type=RS41-SGP Radiosonde
KL4XQU18204722022-12-05 23:47:4661.6288-149.665416512646Clb=7.2m/s t=-50.7C h=2.8% p=170.5hPa 405.301 MHz Type=RS41-SGP Radiosonde
KL4XQU18204722022-12-05 23:47:1661.6246-149.673406512514Clb=3.1m/s t=-50.6C h=3.4% p=173.9hPa 405.301 MHz Type=RS41-SGP Radiosonde
KL4XQU18204722022-12-05 23:46:5061.6202-149.68377212383Clb=3.8m/s t=-50.4C h=3.5% p=177.5hPa 405.301 MHz Type=RS41-SGP Radiosonde
KL4XQU18204722022-12-05 23:46:4861.6151-149.686247012240Clb=4.7m/s t=-51.7C h=4.3% p=181.4hPa 405.301 MHz Type=RS41-SGP Radiosonde
KL4XQU18204722022-12-05 23:46:3661.6102-149.691237412099Clb=4.7m/s t=-52.7C h=4.9% p=185.4hPa 405.301 MHz Type=RS41-SGP Radiosonde
KL4XQU18204722022-12-05 23:45:4861.6051-149.695236711964Clb=4.4m/s t=-53.6C h=5.5% p=189.3hPa 405.301 MHz Type=RS41-SGP Radiosonde
KL4XQU18204722022-12-05 23:44:5961.6005-149.7297211827Clb=5.2m/s t=-54.1C h=6.6% p=193.4hPa 405.301 MHz Type=RS41-SGP Radiosonde
KL4XQU18204722022-12-05 23:44:1261.5952-149.707318511689Clb=3.3m/s t=-55.2C h=7.3% p=197.5hPa 405.301 MHz Type=RS41-SGP Radiosonde
KL4XQU18204722022-12-05 23:43:3861.5875-149.716278911529Clb=3.9m/s t=-56.0C h=8.7% p=202.6hPa 405.301 MHz Type=RS41-SGP Radiosonde
KL4XQU18204722022-12-05 23:43:0761.5828-149.72219311436Clb=4.4m/s t=-56.2C h=8.8% p=205.5hPa 405.301 MHz Type=RS41-SGP Radiosonde
KL4XQU18204722022-12-05 23:42:3661.5759-149.725169111307Clb=2.6m/s t=-56.6C h=10.3% p=209.8hPa 405.301 MHz Type=RS41-SGP Radiosonde
KL4XQU18204722022-12-05 23:42:2861.5689-149.73229411166Clb=4.2m/s t=-56.3C h=11.9% p=214.5hPa 405.301 MHz Type=RS41-SGP Radiosonde
KL4XQU18204722022-12-05 23:42:1661.5623-149.736209411011Clb=6.7m/s t=-58.6C h=17.2% p=220.2hPa 405.301 MHz Type=RS41-SGP Radiosonde
KL4XQU18204722022-12-05 23:41:3261.5537-149.7411511710807Clb=2.5m/s t=-59.5C h=26.9% p=227.1hPa 405.301 MHz Type=RS41-SGP Radiosonde
KL4XQU18204722022-12-05 23:40:4561.5446-149.7461613110622Clb=6.5m/s t=-58.6C h=32.8% p=233.8hPa 405.301 MHz Type=RS41-SGP Radiosonde
KL4XQU18204722022-12-05 23:40:0061.5344-149.7521613910430Clb=8.5m/s t=-58.1C h=40.0% p=241.1hPa 405.301 MHz Type=RS41-SGP Radiosonde
KL4XQU18204722022-12-05 23:39:2961.5237-149.7581215710248Clb=4.9m/s t=-58.2C h=49.6% p=248.0hPa 405.301 MHz Type=RS41-SGP Radiosonde
KL4XQU18204722022-12-05 23:38:5861.5127-149.7641614410083Clb=4.7m/s t=-57.1C h=52.1% p=254.6hPa 405.301 MHz Type=RS41-SGP Radiosonde
KL4XQU18204722022-12-05 23:38:2761.5017-149.774231489916Clb=4.6m/s t=-56.8C h=60.7% p=261.4hPa 405.301 MHz Type=RS41-SGP Radiosonde
KL4XQU18204722022-12-05 23:37:5961.492-149.782211439752Clb=5.2m/s t=-55.7C h=62.7% p=268.2hPa 405.301 MHz Type=RS41-SGP Radiosonde
KL4XQU18204722022-12-05 23:37:5861.4813-149.789161289586Clb=5.5m/s t=-54.7C h=60.1% p=275.3hPa 405.301 MHz Type=RS41-SGP Radiosonde
KL4XQU18204722022-12-05 23:37:1961.469-149.797181319384Clb=5.5m/s t=-52.9C h=51.2% p=284.2hPa 405.301 MHz Type=RS41-SGP Radiosonde
KL4XQU18204722022-12-05 23:36:3261.4614-149.802151289276Clb=5.3m/s t=-51.9C h=49.5% p=289.0hPa 405.301 MHz Type=RS41-SGP Radiosonde
KL4XQU18204722022-12-05 23:35:5261.4514-149.808141309129Clb=5.2m/s t=-50.6C h=50.5% p=295.5hPa 405.301 MHz Type=RS41-SGP Radiosonde
KL4XQU18204722022-12-05 23:35:2161.4419-149.813161338981Clb=5.3m/s t=-49.3C h=58.6% p=302.3hPa 405.301 MHz Type=RS41-SGP Radiosonde
KL4XQU18204722022-12-05 23:34:5061.4303-149.82161248777Clb=4.3m/s t=-47.4C h=52.4% p=311.8hPa 405.301 MHz Type=RS41-SGP Radiosonde
KL4XQU18204722022-12-05 23:34:1961.4221-149.825161198650Clb=3.8m/s t=-46.2C h=52.9% p=317.8hPa 405.301 MHz Type=RS41-SGP Radiosonde
KL4XQU18204722022-12-05 23:33:4861.4115-149.831131338456Clb=3.9m/s t=-44.4C h=54.2% p=327.3hPa 405.301 MHz Type=RS41-SGP Radiosonde
KL4XQU18204722022-12-05 23:33:3661.4028-149.836151268284Clb=5.3m/s t=-42.9C h=57.3% p=335.6hPa 405.301 MHz Type=RS41-SGP Radiosonde
KL4XQU18204722022-12-05 23:33:0061.3947-149.84161248138Clb=4.2m/s t=-41.5C h=61.2% p=343.1hPa 405.301 MHz Type=RS41-SGP Radiosonde
KL4XQU18204722022-12-05 23:32:1861.3852-149.845151207973Clb=6.8m/s t=-40.0C h=70.4% p=351.4hPa 405.301 MHz Type=RS41-SGP Radiosonde
KL4XQU18204722022-12-05 23:31:4361.3755-149.85131247786Clb=6.2m/s t=-38.3C h=80.6% p=361.3hPa 405.301 MHz Type=RS41-SGP Radiosonde
KL4XQU18204722022-12-05 23:31:1261.3663-149.855111157628Clb=3.5m/s t=-37.0C h=81.2% p=369.7hPa 405.301 MHz Type=RS41-SGP Radiosonde
KL4XQU18204722022-12-05 23:30:4161.3577-149.858101047452Clb=5.1m/s t=-35.6C h=83.7% p=379.0hPa 405.301 MHz Type=RS41-SGP Radiosonde
KL4XQU18204722022-12-05 23:30:1061.349-149.862131137278Clb=6.5m/s t=-34.1C h=88.7% p=388.7hPa 405.301 MHz Type=RS41-SGP Radiosonde
KL4XQU18204722022-12-05 23:29:3961.339-149.867131117096Clb=4.7m/s t=-32.5C h=87.0% p=398.9hPa 405.301 MHz Type=RS41-SGP Radiosonde
KL4XQU18204722022-12-05 23:29:1561.3312-149.871121156951Clb=5.2m/s t=-31.3C h=88.3% p=407.3hPa 405.301 MHz Type=RS41-SGP Radiosonde
KL4XQU18204722022-12-05 23:28:4661.3232-149.875101116805Clb=9.1m/s t=-30.1C h=86.2% p=415.8hPa 405.301 MHz Type=RS41-SGP Radiosonde
KL4XQU18204722022-12-05 23:28:0761.3124-149.88101196578Clb=7.1m/s t=-28.5C h=83.6% p=429.2hPa 405.301 MHz Type=RS41-SGP Radiosonde
KL4XQU18204722022-12-05 23:27:3561.3038-149.884191116400Clb=7.6m/s t=-27.2C h=82.9% p=440.0hPa 405.301 MHz Type=RS41-SGP Radiosonde
KL4XQU18204722022-12-05 23:27:0461.2969-149.888171116255Clb=7.3m/s t=-26.2C h=83.9% p=449.1hPa 405.301 MHz Type=RS41-SGP Radiosonde
KL4XQU18204722022-12-05 23:26:3361.2882-149.89381156072Clb=8.7m/s t=-24.9C h=83.1% p=460.4hPa 405.301 MHz Type=RS41-SGP Radiosonde
KL4XQU18204722022-12-05 23:26:0261.2798-149.898251075896Clb=5.6m/s t=-24.2C h=83.7% p=471.8hPa 405.301 MHz Type=RS41-SGP Radiosonde
KL4XQU18204722022-12-05 23:25:3161.2719-149.905201045724Clb=6.2m/s t=-23.0C h=84.5% p=483.1hPa 405.301 MHz Type=RS41-SGP Radiosonde
KL4XQU18204722022-12-05 23:25:0261.2645-149.911211045544Clb=4.9m/s t=-22.1C h=-1.0% p=495.2hPa 405.301 MHz Type=RS41-SGP Radiosonde
KL4XQU18204722022-12-05 23:24:3361.2574-149.917211045364Clb=5.8m/s t=-21.1C h=-1.0% p=-1.0hPa 405.301 MHz Type=RS41-SGP Radiosonde
KL4XQU18204722022-12-05 23:23:5861.2509-149.92318965183Clb=5.8m/s t=-19.9C h=-1.0% p=-1.0hPa 405.301 MHz Type=RS41-SGP Radiosonde
KL4XQU18204722022-12-05 23:22:5561.2388-149.93229654820Clb=4.2m/s t=-18.3C h=-1.0% p=-1.0hPa 405.301 MHz Type=RS41-SGP Radiosonde
KL4XQU18204722022-12-05 23:22:2461.2339-149.93716724639Clb=6.3m/s t=-273.0C h=-1.0% p=-1.0hPa 405.301 MHz Type=RS41 Radiosonde
KL4XQU18204722022-12-05 23:21:5361.229-149.94124564472Clb=4.3m/s t=-273.0C h=-1.0% p=-1.0hPa 405.301 MHz Type=RS41 Radiosonde